Panda — PBCS — position and weather

sailwx.info

Track history (hours):
 
Tides and Currents Weather Stations Pressure Air Temp Water Temp Dewpoint Dewpoint Depression Visibility Wind Speed Wind Dir Waves Ship Positions

Panda

Last reported at 2018-May-23 05:47 UTC. Time now 2018-May-23 07:19 UTC.
Position N 44°52' W 004°12'.

Length 89 m; draft 3.1 m.

Type: Cargo ship. MMSI: 245014000.

Date/timePositionNaut miles runAvg speedWind from/ knotsBaromVisibWave heightAir tempDewpointWater temp
2018-May-23 05:47N 44°52' W 004°12'310.7
2018-May-23 05:30N 44°55' W 004°13'17011.0
2018-May-22 14:06N 47°40' W 005°10'711.8
2018-May-22 13:32N 47°47' W 005°12'411.8
2018-May-22 13:14N 47°50' W 005°14'312.1
2018-May-22 13:00N 47°53' W 005°15'612.1
2018-May-22 12:30N 47°59' W 005°16'611.4
2018-May-22 12:00N 48°04' W 005°17'611.3
2018-May-22 11:30N 48°10' W 005°19'611.3
2018-May-22 10:58N 48°16' W 005°20'511.0
2018-May-22 10:29N 48°21' W 005°22'510.5
2018-May-22 10:00N 48°26' W 005°24'5 9.8
2018-May-22 09:30N 48°31' W 005°25'5 9.7
2018-May-22 09:00N 48°35' W 005°20'5 9.5
2018-May-22 08:31N 48°38' W 005°15'5 9.5
2018-May-22 08:00N 48°42' W 005°11'5 9.8
2018-May-22 07:30N 48°46' W 005°06'5 9.9
2018-May-22 07:01N 48°50' W 005°02'510.3
2018-May-22 06:31N 48°54' W 004°57'510.5
2018-May-22 06:00N 48°58' W 004°52'510.8
2018-May-22 05:30N 49°02' W 004°47'511.0
2018-May-22 05:01N 49°07' W 004°42'1011.0
2018-May-22 04:08N 49°15' W 004°35'111.2
2018-May-22 04:00N 49°16' W 004°34'5410.5
2018-May-21 22:53N 50°01' W 003°47'4 9.7
2018-May-21 22:30N 50°04' W 003°44'5 9.7
2018-May-21 22:00N 50°08' W 003°39'5 9.9
2018-May-21 21:30N 50°12' W 003°35'510.4
2018-May-21 21:00N 50°16' W 003°31'511.0
2018-May-21 20:30N 50°21' W 003°28'611.2
2018-May-21 20:00N 50°27' W 003°27'510.9
2018-May-21 19:31N 50°32' W 003°29'1 2.2
2018-May-21 18:59N 50°33' W 003°30'0 0.0
2018-May-21 18:29N 50°33' W 003°30'0 0.0
2018-May-21 17:59N 50°33' W 003°30'0 0.0
2018-May-21 17:29N 50°33' W 003°30'0 0.0
2018-May-21 16:59N 50°33' W 003°30'0 0.0
2018-May-21 16:29N 50°33' W 003°30'0 0.0
2018-May-21 15:59N 50°33' W 003°30'0 0.0
2018-May-21 15:29N 50°33' W 003°30'0 0.0
2018-May-21 14:59N 50°33' W 003°30'0 0.0
2018-May-21 14:29N 50°33' W 003°30'0 0.0
2018-May-21 13:59N 50°33' W 003°30'0 0.0
2018-May-21 13:28N 50°33' W 003°30'0 0.0
2018-May-21 12:58N 50°33' W 003°30'0 0.0
2018-May-21 12:28N 50°33' W 003°30'0 0.0
2018-May-21 11:58N 50°33' W 003°30'0 0.0
2018-May-21 11:28N 50°33' W 003°30'0 0.0
2018-May-21 10:58N 50°33' W 003°30'0 0.0
2018-May-21 10:28N 50°33' W 003°30'0 0.0
2018-May-21 09:58N 50°33' W 003°30'0 0.0
2018-May-21 09:28N 50°33' W 003°30'0 0.0
2018-May-21 08:58N 50°33' W 003°30'0 0.0
2018-May-21 08:28N 50°33' W 003°30'0 0.0
2018-May-21 07:58N 50°33' W 003°30'0 0.0
2018-May-21 07:28N 50°33' W 003°30'0 0.0
2018-May-21 06:58N 50°33' W 003°30'0 0.0
2018-May-21 06:28N 50°33' W 003°30'0 0.0
2018-May-21 05:58N 50°33' W 003°30'0 0.0
2018-May-21 05:28N 50°33' W 003°30'0 0.0
2018-May-21 04:58N 50°33' W 003°30'0 0.0
2018-May-21 04:28N 50°33' W 003°30'0 0.0
2018-May-21 03:58N 50°33' W 003°30'0 0.0
2018-May-21 03:28N 50°33' W 003°30'0 0.0
2018-May-21 02:58N 50°33' W 003°30'0 0.0
2018-May-21 02:28N 50°33' W 003°30'0 0.0
2018-May-21 01:58N 50°33' W 003°30'0 0.0
2018-May-21 01:28N 50°33' W 003°30'0 0.0
2018-May-21 00:58N 50°33' W 003°30'0 0.0
2018-May-21 00:28N 50°33' W 003°30'0 0.0
2018-May-20 23:58N 50°33' W 003°30'0 0.0
2018-May-20 23:28N 50°33' W 003°30'0 0.0
2018-May-20 22:58N 50°33' W 003°30'0 0.0
2018-May-20 22:28N 50°33' W 003°30'0 0.0
2018-May-20 21:58N 50°33' W 003°30'0 0.0
2018-May-20 21:28N 50°33' W 003°30'0 0.0
2018-May-20 20:58N 50°33' W 003°30'0 0.0
2018-May-20 20:28N 50°33' W 003°30'0 0.0
2018-May-20 19:58N 50°33' W 003°30'0 0.0
2018-May-20 19:28N 50°33' W 003°30'0 0.0
2018-May-20 18:58N 50°33' W 003°30'0 0.0
2018-May-20 18:28N 50°33' W 003°30'0 0.0
2018-May-20 17:58N 50°33' W 003°30'0 0.0
2018-May-20 17:28N 50°33' W 003°30'0 0.0
2018-May-20 16:58N 50°33' W 003°30'0 0.0
2018-May-20 16:28N 50°33' W 003°30'0 0.0
2018-May-20 15:58N 50°33' W 003°30'0 0.0
2018-May-20 15:28N 50°33' W 003°30'0 0.0
2018-May-20 14:58N 50°33' W 003°30'0 0.0
2018-May-20 14:28N 50°33' W 003°30'0 0.0
2018-May-20 13:58N 50°33' W 003°30'0 0.0
2018-May-20 13:28N 50°33' W 003°30'0 0.0
2018-May-20 12:58N 50°33' W 003°30'0 0.0
2018-May-20 12:28N 50°33' W 003°30'0 0.0
2018-May-20 11:58N 50°33' W 003°30'0 0.0
2018-May-20 11:28N 50°33' W 003°30'0 0.0
2018-May-20 10:58N 50°33' W 003°30'0 0.0
2018-May-20 10:28N 50°33' W 003°30'0 0.4
2018-May-20 10:00N 50°33' W 003°30'1 2.1
2018-May-20 09:30N 50°32' W 003°29'1 2.0
2018-May-20 09:00N 50°31' W 003°28'0 0.0
2018-May-20 08:30N 50°31' W 003°28'0 0.0
2018-May-20 08:00N 50°31' W 003°28'0 0.1
2018-May-20 07:30N 50°31' W 003°28'0 0.0
2018-May-20 07:00N 50°31' W 003°28'0 0.0
2018-May-20 06:30N 50°31' W 003°28'0 0.0
2018-May-20 06:00N 50°31' W 003°28'0 0.0
2018-May-20 05:30N 50°31' W 003°28'0 0.0
2018-May-20 05:00N 50°31' W 003°28'0 0.0
2018-May-20 04:30N 50°31' W 003°28'0 0.0
2018-May-20 04:00N 50°31' W 003°28'1 2.0
2018-May-20 03:30N 50°31' W 003°26'4 7.4
2018-May-20 03:00N 50°31' W 003°21'4 7.7
2018-May-20 02:30N 50°31' W 003°14'4 7.7
2018-May-20 02:00N 50°31' W 003°08'4 7.6
2018-May-20 01:30N 50°30' W 003°03'4 7.4
2018-May-20 01:00N 50°30' W 002°57'4 7.1
2018-May-20 00:30N 50°30' W 002°51'3 6.6
2018-May-20 00:00N 50°30' W 002°46'3 6.2
2018-May-19 23:30N 50°30' W 002°41'3 6.0
2018-May-19 23:00N 50°29' W 002°36'3 5.5
2018-May-19 22:30N 50°29' W 002°32'3 5.3
2018-May-19 22:00N 50°29' W 002°28'2 4.5
2018-May-19 21:30N 50°29' W 002°24'3 6.0
2018-May-19 21:00N 50°29' W 002°20'4 7.9
2018-May-19 20:30N 50°29' W 002°13'4 8.7
2018-May-19 20:00N 50°29' W 002°07'5 9.3
2018-May-19 19:30N 50°29' W 001°59'510.0
2018-May-19 19:00N 50°30' W 001°52'510.7
2018-May-19 18:30N 50°30' W 001°43'611.1
2018-May-19 18:01N 50°30' W 001°34'611.8
2018-May-19 17:30N 50°30' W 001°25'612.6
2018-May-19 17:00N 50°30' W 001°15'612.6
2018-May-19 16:31N 50°31' W 001°05'612.1
2018-May-19 16:00N 50°31' W 000°56'612.0
2018-May-19 15:30N 50°31' W 000°46'611.5
2018-May-19 14:59N 50°31' W 000°37'5 9.9
2018-May-19 14:30N 50°31' W 000°29'5 9.3
2018-May-19 14:00N 50°32' W 000°22'5 9.0
2018-May-19 13:30N 50°32' W 000°15'4 8.4
2018-May-19 13:00N 50°32' W 000°09'4 8.0
2018-May-19 12:30N 50°33' W 000°02'4 7.4
2018-May-19 12:00N 50°33' E 000°03'4 7.0
2018-May-19 11:30N 50°34' E 000°09'4 7.1
2018-May-19 11:00N 50°35' E 000°14'4 7.4
2018-May-19 10:30N 50°36' E 000°20'4 8.0
2018-May-19 10:00N 50°37' E 000°26'4 8.9
2018-May-19 09:30N 50°38' E 000°33'5 9.7
2018-May-19 09:00N 50°41' E 000°39'510.5
2018-May-19 08:30N 50°44' E 000°46'511.0
2018-May-19 08:00N 50°47' E 000°53'611.0
2018-May-19 07:30N 50°50' E 001°00'1710.5
2018-May-19 05:56N 51°01' E 001°21'4 9.3
2018-May-19 05:30N 51°03' E 001°25'4 8.5
2018-May-19 05:00N 51°06' E 001°31'4 7.4
2018-May-19 04:30N 51°09' E 001°35'3 6.5
2018-May-19 04:00N 51°11' E 001°39'3 6.4
2018-May-19 03:30N 51°13' E 001°43'3 6.4
2018-May-19 03:00N 51°15' E 001°46'3 7.0
2018-May-19 02:30N 51°18' E 001°49'4 7.7
2018-May-19 02:00N 51°22' E 001°51'4 8.4
2018-May-19 01:30N 51°26' E 001°54'4 8.8
2018-May-19 01:01N 51°29' E 001°58'510.0
2018-May-19 00:31N 51°33' E 002°04'510.6
2018-May-19 00:00N 51°37' E 002°10'511.1
2018-May-18 23:30N 51°41' E 002°16'811.4
2018-May-18 22:51N 51°46' E 002°24'3010.6
2018-May-18 19:59N 52°10' E 002°54'6 8.9
2018-May-18 19:21N 52°15' E 002°60'3 8.5
2018-May-18 18:57N 52°17' E 003°03'6 8.2
2018-May-18 18:13N 52°22' E 003°09'4 7.8
2018-May-18 17:44N 52°25' E 003°13'2 7.6
2018-May-18 17:24N 52°27' E 003°16'4 7.4
2018-May-18 16:53N 52°30' E 003°19'81 8.7
2018-May-18 07:38N 53°30' E 004°49'2 8.2
2018-May-18 07:23N 53°31' E 004°52'3 8.0
2018-May-18 07:00N 53°32' E 004°57'4 8.1
2018-May-18 06:30N 53°33' E 005°04'5 8.5
2018-May-18 05:57N 53°35' E 005°11'6 9.5
2018-May-18 05:18N 53°37' E 005°21'410.2
2018-May-18 04:55N 53°38' E 005°27'106 9.0
2018-May-17 17:06N 53°60' E 008°24'512.3
2018-May-17 16:41N 53°58' E 008°32'512.3
2018-May-17 16:18N 53°57' E 008°39'412.4
2018-May-17 16:00N 53°53' E 008°42'510.6
2018-May-17 15:30N 53°50' E 008°50'5 9.3
2018-May-17 15:00N 53°51' E 008°58'4 7.8
2018-May-17 14:30N 53°52' E 009°04'3 6.4
2018-May-17 14:00N 53°54' E 009°09'0 0.1
2018-May-17 13:30N 53°54' E 009°09'3 5.8
2018-May-17 13:00N 53°56' E 009°12'4 8.7
2018-May-17 12:30N 53°59' E 009°17'4 8.5
2018-May-17 11:59N 54°03' E 009°19'4 8.4
2018-May-17 11:30N 54°07' E 009°20'4 8.2
2018-May-17 11:00N 54°10' E 009°25'4 8.5
2018-May-17 10:30N 54°12' E 009°32'4 8.2
2018-May-17 10:00N 54°15' E 009°37'3 6.8
2018-May-17 09:30N 54°17' E 009°40'4 7.5
2018-May-17 09:00N 54°20' E 009°44'4 8.0
2018-May-17 08:30N 54°22' E 009°50'10 6.2
2018-May-17 06:54N 54°22' E 010°07'1 1.8
2018-May-17 06:30N 54°22' E 010°09'2 3.2
2018-May-17 06:00N 54°23' E 010°11'5 9.6
2018-May-17 05:30N 54°27' E 010°14'5 9.4
2018-May-17 05:00N 54°30' E 010°20'6 9.7
2018-May-17 04:24N 54°33' E 010°29'4 9.8
2018-May-17 04:00N 54°34' E 010°35'5 9.7
2018-May-17 03:30N 54°35' E 010°44'5 9.6
2018-May-17 03:00N 54°35' E 010°52'5 9.3
2018-May-17 02:30N 54°36' E 010°60'5 9.5
2018-May-17 02:00N 54°36' E 011°08'5 9.6
2018-May-17 01:30N 54°34' E 011°16'5 9.7
2018-May-17 01:01N 54°33' E 011°24'5 9.6
2018-May-17 00:30N 54°31' E 011°32'5 9.7
2018-May-17 00:00N 54°30' E 011°40'5 9.6
2018-May-16 23:30N 54°29' E 011°48'5 9.7
2018-May-16 23:00N 54°27' E 011°56'5 9.7
2018-May-16 22:30N 54°27' E 012°04'5 9.2
2018-May-16 22:00N 54°29' E 012°11'5 9.7
2018-May-16 21:30N 54°34' E 012°13'5 9.2
2018-May-16 21:00N 54°38' E 012°18'5 9.6
2018-May-16 20:30N 54°40' E 012°25'5 9.7
2018-May-16 19:57N 54°43' E 012°33'41 9.7
2018-May-16 15:41N 54°59' E 013°39'10 9.9
2018-May-16 14:40N 55°03' E 013°55'2 9.4
2018-May-16 14:29N 55°03' E 013°58'6 9.2
2018-May-16 13:50N 55°07' E 014°07'3 9.7
2018-May-16 13:30N 55°09' E 014°10'5 9.7
2018-May-16 12:57N 55°13' E 014°16'5 9.9
2018-May-16 12:29N 55°17' E 014°21'5 9.8
2018-May-16 12:00N 55°21' E 014°26'510.0
2018-May-16 11:30N 55°25' E 014°31'510.1
2018-May-16 11:00N 55°28' E 014°38'510.1
2018-May-16 10:31N 55°31' E 014°45'5 9.9
2018-May-16 09:59N 55°33' E 014°53'510.0
2018-May-16 09:31N 55°36' E 015°01'5 9.8
2018-May-16 09:00N 55°38' E 015°08'5 9.7
2018-May-16 08:30N 55°40' E 015°16'5 9.7
2018-May-16 07:58N 55°43' E 015°24'5 9.8
2018-May-16 07:30N 55°45' E 015°31'5 9.8
2018-May-16 07:00N 55°48' E 015°38'710.2
2018-May-16 06:20N 55°51' E 015°49'3 9.8
2018-May-16 06:00N 55°53' E 015°54'318 9.8
2018-May-14 21:34N 59°36' E 022°59'210.1
2018-May-14 21:23N 59°36' E 023°03'410.1
2018-May-14 21:00N 59°37' E 023°10'510.3
2018-May-14 20:30N 59°39' E 023°20'510.0
2018-May-14 20:00N 59°40' E 023°30'5 9.9
2018-May-14 19:30N 59°41' E 023°39'510.0
2018-May-14 19:01N 59°43' E 023°48'510.2
2018-May-14 18:30N 59°44' E 023°58'510.2
2018-May-14 18:00N 59°46' E 024°08'610.1
2018-May-14 17:27N 59°47' E 024°19'410.1
2018-May-14 17:00N 59°48' E 024°27'510.1
2018-May-14 16:30N 59°49' E 024°37'5 9.9
2018-May-14 16:00N 59°50' E 024°47'5 9.8
2018-May-14 15:30N 59°51' E 024°56'5 9.9
2018-May-14 15:00N 59°52' E 025°06'5 9.9
2018-May-14 14:30N 59°53' E 025°16'5 9.8
2018-May-14 14:00N 59°54' E 025°25'12 9.7
2018-May-14 12:47N 59°56' E 025°48'4 9.8
2018-May-14 12:24N 59°57' E 025°55'6 9.7
2018-May-14 11:46N 59°59' E 026°07'3 9.8
2018-May-14 11:30N 59°59' E 026°12'611.2
2018-May-14 11:00N 60°00' E 026°23'4 8.5
2018-May-14 10:30N 60°01' E 026°31'5 9.7
2018-May-14 10:00N 60°01' E 026°41'5 9.9
2018-May-14 09:29N 60°00' E 026°52'510.7
2018-May-14 09:00N 59°59' E 027°02'510.3
2018-May-14 08:30N 60°02' E 027°10'4 8.5
2018-May-14 08:00N 60°04' E 027°18'5 9.7
2018-May-14 07:27N 60°07' E 027°27'4 9.8
2018-May-14 07:00N 60°09' E 027°35'510.0
2018-May-14 06:30N 60°11' E 027°44'5 9.3
2018-May-14 06:00N 60°11' E 027°53'5 9.9
2018-May-14 05:30N 60°10' E 028°03'4 8.7
2018-May-14 05:00N 60°06' E 028°07'5 9.8
2018-May-14 04:30N 60°01' E 028°09'510.0
2018-May-14 04:00N 59°56' E 028°10'5 9.8
2018-May-14 03:30N 59°51' E 028°12'5 9.7
2018-May-14 03:00N 59°47' E 028°14'4 9.0
2018-May-14 02:30N 59°42' E 028°18'3 4.3
2018-May-14 01:55N 59°40' E 028°18'0 0.0
2018-May-14 01:25N 59°40' E 028°18'0 0.0
2018-May-14 00:55N 59°40' E 028°18'0 0.0
2018-May-14 00:30N 59°40' E 028°18'0 0.0
2018-May-13 23:59N 59°40' E 028°18'0 0.0
2018-May-13 23:22N 59°40' E 028°18'0 0.0
2018-May-13 22:52N 59°40' E 028°18'0 0.0
2018-May-13 22:19N 59°40' E 028°18'0 0.0
2018-May-13 21:52N 59°40' E 028°18'0 0.0
2018-May-13 21:22N 59°40' E 028°18'0 0.0
2018-May-13 20:52N 59°40' E 028°18'0 0.0
2018-May-13 20:22N 59°40' E 028°18'0 0.0
2018-May-13 19:52N 59°40' E 028°18'0 0.0
2018-May-13 19:22N 59°40' E 028°18'0 0.0
2018-May-13 18:52N 59°40' E 028°18'0 0.0
2018-May-13 18:25N 59°40' E 028°18'0 0.0
2018-May-13 17:54N 59°40' E 028°18'0 0.0
2018-May-13 17:24N 59°40' E 028°18'0 0.0
2018-May-13 16:54N 59°40' E 028°18'0 0.0
2018-May-13 16:24N 59°40' E 028°18'0 0.0
2018-May-13 15:54N 59°40' E 028°18'0 0.0
2018-May-13 15:22N 59°40' E 028°18'0 0.0
2018-May-13 14:54N 59°40' E 028°18'0 0.0
2018-May-13 14:24N 59°40' E 028°18'0 0.0
2018-May-13 13:57N 59°40' E 028°18'0 0.0
2018-May-13 13:27N 59°40' E 028°18'0 0.0
2018-May-13 12:57N 59°40' E 028°18'0 0.0
2018-May-13 12:27N 59°40' E 028°18'0 0.0
2018-May-13 11:57N 59°40' E 028°18'0 0.0
2018-May-13 11:27N 59°40' E 028°18'0 0.0
2018-May-13 10:54N 59°40' E 028°18'0 0.0
2018-May-13 10:27N 59°40' E 028°18'0 0.0
2018-May-13 10:00N 59°40' E 028°18'0 0.0
2018-May-13 09:27N 59°40' E 028°18'0 0.0
2018-May-13 09:00N 59°40' E 028°18'0 0.0
2018-May-13 08:30N 59°40' E 028°18'0 0.0
2018-May-13 08:00N 59°40' E 028°18'0 0.0
2018-May-13 07:30N 59°40' E 028°18'0 0.0
2018-May-13 07:00N 59°40' E 028°18'0 0.0
2018-May-13 06:30N 59°40' E 028°18'0 0.0
2018-May-13 06:00N 59°40' E 028°18'  
Track history (hours):
 
Tides and Currents Weather Stations Pressure Air Temp Water Temp Dewpoint Dewpoint Depression Visibility Wind Speed Wind Dir Waves Ship Positions

Panda

Last reported at 2018-May-23 05:47 UTC. Time now 2018-May-23 07:19 UTC.
Position N 44°52' W 004°12'.

Length 89 m; draft 3.1 m.

Type: Cargo ship. MMSI: 245014000.

Date/timePositionNaut miles runAvg speedWind from/ knotsBaromVisibWave heightAir tempDewpointWater temp
2018-May-23 05:47N 44°52' W 004°12'310.7
2018-May-23 05:30N 44°55' W 004°13'17011.0
2018-May-22 14:06N 47°40' W 005°10'711.8
2018-May-22 13:32N 47°47' W 005°12'411.8
2018-May-22 13:14N 47°50' W 005°14'312.1
2018-May-22 13:00N 47°53' W 005°15'612.1
2018-May-22 12:30N 47°59' W 005°16'611.4
2018-May-22 12:00N 48°04' W 005°17'611.3
2018-May-22 11:30N 48°10' W 005°19'611.3
2018-May-22 10:58N 48°16' W 005°20'511.0
2018-May-22 10:29N 48°21' W 005°22'510.5
2018-May-22 10:00N 48°26' W 005°24'5 9.8
2018-May-22 09:30N 48°31' W 005°25'5 9.7
2018-May-22 09:00N 48°35' W 005°20'5 9.5
2018-May-22 08:31N 48°38' W 005°15'5 9.5
2018-May-22 08:00N 48°42' W 005°11'5 9.8
2018-May-22 07:30N 48°46' W 005°06'5 9.9
2018-May-22 07:01N 48°50' W 005°02'510.3
2018-May-22 06:31N 48°54' W 004°57'510.5
2018-May-22 06:00N 48°58' W 004°52'510.8
2018-May-22 05:30N 49°02' W 004°47'511.0
2018-May-22 05:01N 49°07' W 004°42'1011.0
2018-May-22 04:08N 49°15' W 004°35'111.2
2018-May-22 04:00N 49°16' W 004°34'5410.5
2018-May-21 22:53N 50°01' W 003°47'4 9.7
2018-May-21 22:30N 50°04' W 003°44'5 9.7
2018-May-21 22:00N 50°08' W 003°39'5 9.9
2018-May-21 21:30N 50°12' W 003°35'510.4
2018-May-21 21:00N 50°16' W 003°31'511.0
2018-May-21 20:30N 50°21' W 003°28'611.2
2018-May-21 20:00N 50°27' W 003°27'510.9
2018-May-21 19:31N 50°32' W 003°29'1 2.2
2018-May-21 18:59N 50°33' W 003°30'0 0.0
2018-May-21 18:29N 50°33' W 003°30'0 0.0
2018-May-21 17:59N 50°33' W 003°30'0 0.0
2018-May-21 17:29N 50°33' W 003°30'0 0.0
2018-May-21 16:59N 50°33' W 003°30'0 0.0
2018-May-21 16:29N 50°33' W 003°30'0 0.0
2018-May-21 15:59N 50°33' W 003°30'0 0.0
2018-May-21 15:29N 50°33' W 003°30'0 0.0
2018-May-21 14:59N 50°33' W 003°30'0 0.0
2018-May-21 14:29N 50°33' W 003°30'0 0.0
2018-May-21 13:59N 50°33' W 003°30'0 0.0
2018-May-21 13:28N 50°33' W 003°30'0 0.0
2018-May-21 12:58N 50°33' W 003°30'0 0.0
2018-May-21 12:28N 50°33' W 003°30'0 0.0
2018-May-21 11:58N 50°33' W 003°30'0 0.0
2018-May-21 11:28N 50°33' W 003°30'0 0.0
2018-May-21 10:58N 50°33' W 003°30'0 0.0
2018-May-21 10:28N 50°33' W 003°30'0 0.0
2018-May-21 09:58N 50°33' W 003°30'0 0.0
2018-May-21 09:28N 50°33' W 003°30'0 0.0
2018-May-21 08:58N 50°33' W 003°30'0 0.0
2018-May-21 08:28N 50°33' W 003°30'0 0.0
2018-May-21 07:58N 50°33' W 003°30'0 0.0
2018-May-21 07:28N 50°33' W 003°30'0 0.0
2018-May-21 06:58N 50°33' W 003°30'0 0.0
2018-May-21 06:28N 50°33' W 003°30'0 0.0
2018-May-21 05:58N 50°33' W 003°30'0 0.0
2018-May-21 05:28N 50°33' W 003°30'0 0.0
2018-May-21 04:58N 50°33' W 003°30'0 0.0
2018-May-21 04:28N 50°33' W 003°30'0 0.0
2018-May-21 03:58N 50°33' W 003°30'0 0.0
2018-May-21 03:28N 50°33' W 003°30'0 0.0
2018-May-21 02:58N 50°33' W 003°30'0 0.0
2018-May-21 02:28N 50°33' W 003°30'0 0.0
2018-May-21 01:58N 50°33' W 003°30'0 0.0
2018-May-21 01:28N 50°33' W 003°30'0 0.0
2018-May-21 00:58N 50°33' W 003°30'0 0.0
2018-May-21 00:28N 50°33' W 003°30'0 0.0
2018-May-20 23:58N 50°33' W 003°30'0 0.0
2018-May-20 23:28N 50°33' W 003°30'0 0.0
2018-May-20 22:58N 50°33' W 003°30'0 0.0
2018-May-20 22:28N 50°33' W 003°30'0 0.0
2018-May-20 21:58N 50°33' W 003°30'0 0.0
2018-May-20 21:28N 50°33' W 003°30'0 0.0
2018-May-20 20:58N 50°33' W 003°30'0 0.0
2018-May-20 20:28N 50°33' W 003°30'0 0.0
2018-May-20 19:58N 50°33' W 003°30'0 0.0
2018-May-20 19:28N 50°33' W 003°30'0 0.0
2018-May-20 18:58N 50°33' W 003°30'0 0.0
2018-May-20 18:28N 50°33' W 003°30'0 0.0
2018-May-20 17:58N 50°33' W 003°30'0 0.0
2018-May-20 17:28N 50°33' W 003°30'0 0.0
2018-May-20 16:58N 50°33' W 003°30'0 0.0
2018-May-20 16:28N 50°33' W 003°30'0 0.0
2018-May-20 15:58N 50°33' W 003°30'0 0.0
2018-May-20 15:28N 50°33' W 003°30'0 0.0
2018-May-20 14:58N 50°33' W 003°30'0 0.0
2018-May-20 14:28N 50°33' W 003°30'0 0.0
2018-May-20 13:58N 50°33' W 003°30'0 0.0
2018-May-20 13:28N 50°33' W 003°30'0 0.0
2018-May-20 12:58N 50°33' W 003°30'0 0.0
2018-May-20 12:28N 50°33' W 003°30'0 0.0
2018-May-20 11:58N 50°33' W 003°30'0 0.0
2018-May-20 11:28N 50°33' W 003°30'0 0.0
2018-May-20 10:58N 50°33' W 003°30'0 0.0
2018-May-20 10:28N 50°33' W 003°30'0 0.4
2018-May-20 10:00N 50°33' W 003°30'1 2.1
2018-May-20 09:30N 50°32' W 003°29'1 2.0
2018-May-20 09:00N 50°31' W 003°28'0 0.0
2018-May-20 08:30N 50°31' W 003°28'0 0.0
2018-May-20 08:00N 50°31' W 003°28'0 0.1
2018-May-20 07:30N 50°31' W 003°28'0 0.0
2018-May-20 07:00N 50°31' W 003°28'0 0.0
2018-May-20 06:30N 50°31' W 003°28'0 0.0
2018-May-20 06:00N 50°31' W 003°28'0 0.0
2018-May-20 05:30N 50°31' W 003°28'0 0.0
2018-May-20 05:00N 50°31' W 003°28'0 0.0
2018-May-20 04:30N 50°31' W 003°28'0 0.0
2018-May-20 04:00N 50°31' W 003°28'1 2.0
2018-May-20 03:30N 50°31' W 003°26'4 7.4
2018-May-20 03:00N 50°31' W 003°21'4 7.7
2018-May-20 02:30N 50°31' W 003°14'4 7.7
2018-May-20 02:00N 50°31' W 003°08'4 7.6
2018-May-20 01:30N 50°30' W 003°03'4 7.4
2018-May-20 01:00N 50°30' W 002°57'4 7.1
2018-May-20 00:30N 50°30' W 002°51'3 6.6
2018-May-20 00:00N 50°30' W 002°46'3 6.2
2018-May-19 23:30N 50°30' W 002°41'3 6.0
2018-May-19 23:00N 50°29' W 002°36'3 5.5
2018-May-19 22:30N 50°29' W 002°32'3 5.3
2018-May-19 22:00N 50°29' W 002°28'2 4.5
2018-May-19 21:30N 50°29' W 002°24'3 6.0
2018-May-19 21:00N 50°29' W 002°20'4 7.9
2018-May-19 20:30N 50°29' W 002°13'4 8.7
2018-May-19 20:00N 50°29' W 002°07'5 9.3
2018-May-19 19:30N 50°29' W 001°59'510.0
2018-May-19 19:00N 50°30' W 001°52'510.7
2018-May-19 18:30N 50°30' W 001°43'611.1
2018-May-19 18:01N 50°30' W 001°34'611.8
2018-May-19 17:30N 50°30' W 001°25'612.6
2018-May-19 17:00N 50°30' W 001°15'612.6
2018-May-19 16:31N 50°31' W 001°05'612.1
2018-May-19 16:00N 50°31' W 000°56'612.0
2018-May-19 15:30N 50°31' W 000°46'611.5
2018-May-19 14:59N 50°31' W 000°37'5 9.9
2018-May-19 14:30N 50°31' W 000°29'5 9.3
2018-May-19 14:00N 50°32' W 000°22'5 9.0
2018-May-19 13:30N 50°32' W 000°15'4 8.4
2018-May-19 13:00N 50°32' W 000°09'4 8.0
2018-May-19 12:30N 50°33' W 000°02'4 7.4
2018-May-19 12:00N 50°33' E 000°03'4 7.0
2018-May-19 11:30N 50°34' E 000°09'4 7.1
2018-May-19 11:00N 50°35' E 000°14'4 7.4
2018-May-19 10:30N 50°36' E 000°20'4 8.0
2018-May-19 10:00N 50°37' E 000°26'4 8.9
2018-May-19 09:30N 50°38' E 000°33'5 9.7
2018-May-19 09:00N 50°41' E 000°39'510.5
2018-May-19 08:30N 50°44' E 000°46'511.0
2018-May-19 08:00N 50°47' E 000°53'611.0
2018-May-19 07:30N 50°50' E 001°00'1710.5
2018-May-19 05:56N 51°01' E 001°21'4 9.3
2018-May-19 05:30N 51°03' E 001°25'4 8.5
2018-May-19 05:00N 51°06' E 001°31'4 7.4
2018-May-19 04:30N 51°09' E 001°35'3 6.5
2018-May-19 04:00N 51°11' E 001°39'3 6.4
2018-May-19 03:30N 51°13' E 001°43'3 6.4
2018-May-19 03:00N 51°15' E 001°46'3 7.0
2018-May-19 02:30N 51°18' E 001°49'4 7.7
2018-May-19 02:00N 51°22' E 001°51'4 8.4
2018-May-19 01:30N 51°26' E 001°54'4 8.8
2018-May-19 01:01N 51°29' E 001°58'510.0
2018-May-19 00:31N 51°33' E 002°04'510.6
2018-May-19 00:00N 51°37' E 002°10'511.1
2018-May-18 23:30N 51°41' E 002°16'811.4
2018-May-18 22:51N 51°46' E 002°24'3010.6
2018-May-18 19:59N 52°10' E 002°54'6 8.9
2018-May-18 19:21N 52°15' E 002°60'3 8.5
2018-May-18 18:57N 52°17' E 003°03'6 8.2
2018-May-18 18:13N 52°22' E 003°09'4 7.8
2018-May-18 17:44N 52°25' E 003°13'2 7.6
2018-May-18 17:24N 52°27' E 003°16'4 7.4
2018-May-18 16:53N 52°30' E 003°19'81 8.7
2018-May-18 07:38N 53°30' E 004°49'2 8.2
2018-May-18 07:23N 53°31' E 004°52'3 8.0
2018-May-18 07:00N 53°32' E 004°57'4 8.1
2018-May-18 06:30N 53°33' E 005°04'5 8.5
2018-May-18 05:57N 53°35' E 005°11'6 9.5
2018-May-18 05:18N 53°37' E 005°21'410.2
2018-May-18 04:55N 53°38' E 005°27'106 9.0
2018-May-17 17:06N 53°60' E 008°24'512.3
2018-May-17 16:41N 53°58' E 008°32'512.3
2018-May-17 16:18N 53°57' E 008°39'412.4
2018-May-17 16:00N 53°53' E 008°42'510.6
2018-May-17 15:30N 53°50' E 008°50'5 9.3
2018-May-17 15:00N 53°51' E 008°58'4 7.8
2018-May-17 14:30N 53°52' E 009°04'3 6.4
2018-May-17 14:00N 53°54' E 009°09'0 0.1
2018-May-17 13:30N 53°54' E 009°09'3 5.8
2018-May-17 13:00N 53°56' E 009°12'4 8.7
2018-May-17 12:30N 53°59' E 009°17'4 8.5
2018-May-17 11:59N 54°03' E 009°19'4 8.4
2018-May-17 11:30N 54°07' E 009°20'4 8.2
2018-May-17 11:00N 54°10' E 009°25'4 8.5
2018-May-17 10:30N 54°12' E 009°32'4 8.2
2018-May-17 10:00N 54°15' E 009°37'3 6.8
2018-May-17 09:30N 54°17' E 009°40'4 7.5
2018-May-17 09:00N 54°20' E 009°44'4 8.0
2018-May-17 08:30N 54°22' E 009°50'10 6.2
2018-May-17 06:54N 54°22' E 010°07'1 1.8
2018-May-17 06:30N 54°22' E 010°09'2 3.2
2018-May-17 06:00N 54°23' E 010°11'5 9.6
2018-May-17 05:30N 54°27' E 010°14'5 9.4
2018-May-17 05:00N 54°30' E 010°20'6 9.7
2018-May-17 04:24N 54°33' E 010°29'4 9.8
2018-May-17 04:00N 54°34' E 010°35'5 9.7
2018-May-17 03:30N 54°35' E 010°44'5 9.6
2018-May-17 03:00N 54°35' E 010°52'5 9.3
2018-May-17 02:30N 54°36' E 010°60'5 9.5
2018-May-17 02:00N 54°36' E 011°08'5 9.6
2018-May-17 01:30N 54°34' E 011°16'5 9.7
2018-May-17 01:01N 54°33' E 011°24'5 9.6
2018-May-17 00:30N 54°31' E 011°32'5 9.7
2018-May-17 00:00N 54°30' E 011°40'5 9.6
2018-May-16 23:30N 54°29' E 011°48'5 9.7
2018-May-16 23:00N 54°27' E 011°56'5 9.7
2018-May-16 22:30N 54°27' E 012°04'5 9.2
2018-May-16 22:00N 54°29' E 012°11'5 9.7
2018-May-16 21:30N 54°34' E 012°13'5 9.2
2018-May-16 21:00N 54°38' E 012°18'5 9.6
2018-May-16 20:30N 54°40' E 012°25'5 9.7
2018-May-16 19:57N 54°43' E 012°33'41 9.7
2018-May-16 15:41N 54°59' E 013°39'10 9.9
2018-May-16 14:40N 55°03' E 013°55'2 9.4
2018-May-16 14:29N 55°03' E 013°58'6 9.2
2018-May-16 13:50N 55°07' E 014°07'3 9.7
2018-May-16 13:30N 55°09' E 014°10'5 9.7
2018-May-16 12:57N 55°13' E 014°16'5 9.9
2018-May-16 12:29N 55°17' E 014°21'5 9.8
2018-May-16 12:00N 55°21' E 014°26'510.0
2018-May-16 11:30N 55°25' E 014°31'510.1
2018-May-16 11:00N 55°28' E 014°38'510.1
2018-May-16 10:31N 55°31' E 014°45'5 9.9
2018-May-16 09:59N 55°33' E 014°53'510.0
2018-May-16 09:31N 55°36' E 015°01'5 9.8
2018-May-16 09:00N 55°38' E 015°08'5 9.7
2018-May-16 08:30N 55°40' E 015°16'5 9.7
2018-May-16 07:58N 55°43' E 015°24'5 9.8
2018-May-16 07:30N 55°45' E 015°31'5 9.8
2018-May-16 07:00N 55°48' E 015°38'710.2
2018-May-16 06:20N 55°51' E 015°49'3 9.8
2018-May-16 06:00N 55°53' E 015°54'318 9.8
2018-May-14 21:34N 59°36' E 022°59'210.1
2018-May-14 21:23N 59°36' E 023°03'410.1
2018-May-14 21:00N 59°37' E 023°10'510.3
2018-May-14 20:30N 59°39' E 023°20'510.0
2018-May-14 20:00N 59°40' E 023°30'5 9.9
2018-May-14 19:30N 59°41' E 023°39'510.0
2018-May-14 19:01N 59°43' E 023°48'510.2
2018-May-14 18:30N 59°44' E 023°58'510.2
2018-May-14 18:00N 59°46' E 024°08'610.1
2018-May-14 17:27N 59°47' E 024°19'410.1
2018-May-14 17:00N 59°48' E 024°27'510.1
2018-May-14 16:30N 59°49' E 024°37'5 9.9
2018-May-14 16:00N 59°50' E 024°47'5 9.8
2018-May-14 15:30N 59°51' E 024°56'5 9.9
2018-May-14 15:00N 59°52' E 025°06'5 9.9
2018-May-14 14:30N 59°53' E 025°16'5 9.8
2018-May-14 14:00N 59°54' E 025°25'12 9.7
2018-May-14 12:47N 59°56' E 025°48'4 9.8
2018-May-14 12:24N 59°57' E 025°55'6 9.7
2018-May-14 11:46N 59°59' E 026°07'3 9.8
2018-May-14 11:30N 59°59' E 026°12'611.2
2018-May-14 11:00N 60°00' E 026°23'4 8.5
2018-May-14 10:30N 60°01' E 026°31'5 9.7
2018-May-14 10:00N 60°01' E 026°41'5 9.9
2018-May-14 09:29N 60°00' E 026°52'510.7
2018-May-14 09:00N 59°59' E 027°02'510.3
2018-May-14 08:30N 60°02' E 027°10'4 8.5
2018-May-14 08:00N 60°04' E 027°18'5 9.7
2018-May-14 07:27N 60°07' E 027°27'4 9.8
2018-May-14 07:00N 60°09' E 027°35'510.0
2018-May-14 06:30N 60°11' E 027°44'5 9.3
2018-May-14 06:00N 60°11' E 027°53'5 9.9
2018-May-14 05:30N 60°10' E 028°03'4 8.7
2018-May-14 05:00N 60°06' E 028°07'5 9.8
2018-May-14 04:30N 60°01' E 028°09'510.0
2018-May-14 04:00N 59°56' E 028°10'5 9.8
2018-May-14 03:30N 59°51' E 028°12'5 9.7
2018-May-14 03:00N 59°47' E 028°14'4 9.0
2018-May-14 02:30N 59°42' E 028°18'3 4.3
2018-May-14 01:55N 59°40' E 028°18'0 0.0
2018-May-14 01:25N 59°40' E 028°18'0 0.0
2018-May-14 00:55N 59°40' E 028°18'0 0.0
2018-May-14 00:30N 59°40' E 028°18'0 0.0
2018-May-13 23:59N 59°40' E 028°18'0 0.0
2018-May-13 23:22N 59°40' E 028°18'0 0.0
2018-May-13 22:52N 59°40' E 028°18'0 0.0
2018-May-13 22:19N 59°40' E 028°18'0 0.0
2018-May-13 21:52N 59°40' E 028°18'0 0.0
2018-May-13 21:22N 59°40' E 028°18'0 0.0
2018-May-13 20:52N 59°40' E 028°18'0 0.0
2018-May-13 20:22N 59°40' E 028°18'0 0.0
2018-May-13 19:52N 59°40' E 028°18'0 0.0
2018-May-13 19:22N 59°40' E 028°18'0 0.0
2018-May-13 18:52N 59°40' E 028°18'0 0.0
2018-May-13 18:25N 59°40' E 028°18'0 0.0
2018-May-13 17:54N 59°40' E 028°18'0 0.0
2018-May-13 17:24N 59°40' E 028°18'0 0.0
2018-May-13 16:54N 59°40' E 028°18'0 0.0
2018-May-13 16:24N 59°40' E 028°18'0 0.0
2018-May-13 15:54N 59°40' E 028°18'0 0.0
2018-May-13 15:22N 59°40' E 028°18'0 0.0
2018-May-13 14:54N 59°40' E 028°18'0 0.0
2018-May-13 14:24N 59°40' E 028°18'0 0.0
2018-May-13 13:57N 59°40' E 028°18'0 0.0
2018-May-13 13:27N 59°40' E 028°18'0 0.0
2018-May-13 12:57N 59°40' E 028°18'0 0.0
2018-May-13 12:27N 59°40' E 028°18'0 0.0
2018-May-13 11:57N 59°40' E 028°18'0 0.0
2018-May-13 11:27N 59°40' E 028°18'0 0.0
2018-May-13 10:54N 59°40' E 028°18'0 0.0
2018-May-13 10:27N 59°40' E 028°18'0 0.0
2018-May-13 10:00N 59°40' E 028°18'0 0.0
2018-May-13 09:27N 59°40' E 028°18'0 0.0
2018-May-13 09:00N 59°40' E 028°18'0 0.0
2018-May-13 08:30N 59°40' E 028°18'0 0.0
2018-May-13 08:00N 59°40' E 028°18'0 0.0
2018-May-13 07:30N 59°40' E 028°18'0 0.0
2018-May-13 07:00N 59°40' E 028°18'0 0.0
2018-May-13 06:30N 59°40' E 028°18'0 0.0
2018-May-13 06:00N 59°40' E 028°18'  

Dump ship's entire track history